Boyntonville, New York
Current Conditions -  °F | °C
As of 3:54 PM on Thursday 27 Nov 2014 (Local Time) from KDDH Reporting Station
Overcast Overcast  
Wind Chill: 28°   Ceiling: 7000
Heat Index: 28°   Visibility: 10mi
Dew Point: 23°   Wind: 0mph
Humidity: 81%   Direction: NA
Pressure: 29.97"   Gusts: NA
Location:  42.8782°N, 73.3625°W
Report Text: KDDH 272054Z AUTO 00000KT 10SM FEW019 BKN070 OVC090 M02/M05 A2997 RMK AO2 SLP157 I3000 T10221050 53001
Loading
Personal Weather Stations






























Interactive Weather Map New forecast layout! Learn more

10-Day Weather Forecast

Advertisements
Track Severe Weather on mobile